createdAt,value
2022-11-22T00:02:40.903Z,5.95
2022-11-22T00:07:43.922Z,5.88
2022-11-22T00:12:46.892Z,5.85
2022-11-22T00:17:51.356Z,5.83
2022-11-22T00:22:54.473Z,5.80
2022-11-22T00:27:57.633Z,5.84
2022-11-22T00:33:01.959Z,5.90
2022-11-22T00:38:04.980Z,5.88
2022-11-22T00:43:07.959Z,5.82
2022-11-22T00:48:12.330Z,5.78
2022-11-22T00:53:15.413Z,5.76
2022-11-22T00:58:18.810Z,5.90
2022-11-22T01:03:23.208Z,5.91
2022-11-22T01:08:26.182Z,5.83
2022-11-22T01:13:30.700Z,5.78
2022-11-22T01:18:36.162Z,5.70
2022-11-22T01:23:39.786Z,5.67
2022-11-22T01:28:43.353Z,5.61
2022-11-22T01:33:47.973Z,5.56
2022-11-22T01:38:50.979Z,5.54
2022-11-22T01:43:53.993Z,5.49
2022-11-22T01:49:04.003Z,5.45
2022-11-22T01:54:12.088Z,5.38
2022-11-22T01:59:20.523Z,5.35
2022-11-22T02:04:27.618Z,5.31
2022-11-22T02:09:31.794Z,5.27
2022-11-22T02:14:35.616Z,5.22
2022-11-22T02:19:47.085Z,5.20
2022-11-22T02:24:56.582Z,5.17
2022-11-22T02:30:01.098Z,5.14
2022-11-22T02:35:14.027Z,5.10
2022-11-22T02:40:18.349Z,5.05
2022-11-22T02:45:25.879Z,5.03
2022-11-22T02:50:28.880Z,4.99
2022-11-22T02:55:32.017Z,4.92
2022-11-22T03:00:38.457Z,4.91
2022-11-22T03:05:41.535Z,4.86
2022-11-22T03:10:47.663Z,4.81
2022-11-22T03:15:52.012Z,4.77
2022-11-22T03:20:55.012Z,4.71
2022-11-22T03:25:58.224Z,4.68
2022-11-22T03:31:02.680Z,4.64
2022-11-22T03:36:06.216Z,4.59
2022-11-22T03:41:09.331Z,4.54
2022-11-22T03:46:17.536Z,4.49
2022-11-22T03:51:20.572Z,4.45
2022-11-22T03:56:24.081Z,4.41
2022-11-22T04:01:28.612Z,4.34
2022-11-22T04:06:31.844Z,4.30
2022-11-22T04:11:34.939Z,4.25
2022-11-22T04:16:39.296Z,4.23
2022-11-22T04:21:42.577Z,4.17
2022-11-22T04:26:49.099Z,4.16
2022-11-22T04:32:11.117Z,4.11
2022-11-22T04:37:14.245Z,4.07
2022-11-22T04:42:34.028Z,4.03
2022-11-22T04:47:55.946Z,4.00
2022-11-22T04:52:59.391Z,3.99
2022-11-22T04:58:02.643Z,3.96
2022-11-22T05:03:07.657Z,3.93
2022-11-22T05:08:11.531Z,3.89
2022-11-22T05:13:14.920Z,3.86
2022-11-22T05:18:19.688Z,3.91
2022-11-22T05:23:40.938Z,4.02
2022-11-22T05:28:44.085Z,4.07
2022-11-22T05:33:48.622Z,4.14
2022-11-22T05:38:52.172Z,4.16
2022-11-22T05:43:56.380Z,4.21
2022-11-22T05:49:00.749Z,4.27
2022-11-22T05:54:04.031Z,4.29
2022-11-22T05:59:07.171Z,4.25
2022-11-22T06:04:11.607Z,4.23
2022-11-22T06:09:14.847Z,4.26
2022-11-22T06:14:17.913Z,4.30
2022-11-22T06:19:22.617Z,4.31
2022-11-22T06:24:25.955Z,4.36
2022-11-22T06:29:30.257Z,4.42
2022-11-22T06:34:35.314Z,4.43
2022-11-22T06:39:38.308Z,4.45
2022-11-22T06:44:41.360Z,4.42
2022-11-22T06:49:46.759Z,4.45
2022-11-22T06:54:49.765Z,4.50
2022-11-22T06:59:52.871Z,4.56
2022-11-22T07:05:24.055Z,4.60
2022-11-22T07:10:20.664Z,4.63
2022-11-22T07:15:23.631Z,4.67
2022-11-22T07:20:28.122Z,4.71
2022-11-22T07:25:31.185Z,4.73
2022-11-22T07:30:34.277Z,4.76
2022-11-22T07:35:38.586Z,4.83
2022-11-22T07:40:41.880Z,4.83
2022-11-22T07:45:44.908Z,4.89
2022-11-22T07:50:49.261Z,4.94
2022-11-22T07:55:52.263Z,4.97
2022-11-22T08:00:55.310Z,4.98
2022-11-22T08:06:01.997Z,5.02
2022-11-22T08:11:06.356Z,5.12
2022-11-22T08:16:11.921Z,5.17
2022-11-22T08:21:19.982Z,5.20
2022-11-22T08:26:23.096Z,5.22
2022-11-22T08:31:28.453Z,5.30
2022-11-22T08:36:33.693Z,5.32
2022-11-22T08:41:36.655Z,5.36
2022-11-22T08:46:39.699Z,5.40
2022-11-22T08:51:45.119Z,5.47
2022-11-22T08:56:48.222Z,5.51
2022-11-22T09:01:51.406Z,5.61
2022-11-22T09:12:19.250Z,5.81
2022-11-22T09:17:22.529Z,5.80
2022-11-22T09:22:28.534Z,5.82
2022-11-22T09:27:31.974Z,5.85
2022-11-22T09:32:35.030Z,5.93
2022-11-22T09:37:39.621Z,5.94
2022-11-22T09:42:53.676Z,5.97
2022-11-22T09:48:09.855Z,6.04
2022-11-22T09:53:19.816Z,6.11
2022-11-22T09:58:32.186Z,6.05
2022-11-22T10:03:44.956Z,6.04
2022-11-22T10:09:00.390Z,6.10
2022-11-22T10:14:07.949Z,6.20
2022-11-22T10:19:15.324Z,6.26
2022-11-22T10:24:20.501Z,6.32
2022-11-22T10:29:36.263Z,6.39
2022-11-22T10:34:55.598Z,6.40
2022-11-22T10:40:11.162Z,6.41
2022-11-22T10:45:23.524Z,6.47
2022-11-22T10:50:34.663Z,6.53
2022-11-22T10:55:51.625Z,6.63
2022-11-22T11:01:04.582Z,6.69
2022-11-22T11:06:24.503Z,6.70
2022-11-22T11:11:39.951Z,6.79
2022-11-22T11:16:49.973Z,6.76
2022-11-22T11:22:01.618Z,6.78
2022-11-22T11:27:07.938Z,6.82
2022-11-22T11:32:16.736Z,6.99
2022-11-22T11:37:25.571Z,7.03
2022-11-22T11:42:40.702Z,7.12
2022-11-22T11:47:44.349Z,7.19
2022-11-22T11:52:52.987Z,7.21
2022-11-22T11:58:01.383Z,7.13
2022-11-22T12:03:09.889Z,7.09
2022-11-22T12:08:48.877Z,7.13
2022-11-22T12:14:20.665Z,7.21
2022-11-22T12:19:38.783Z,7.24
2022-11-22T12:25:03.116Z,7.34
2022-11-22T12:30:16.265Z,7.21
2022-11-22T12:35:22.703Z,7.20
2022-11-22T12:40:33.414Z,7.29
2022-11-22T12:45:41.347Z,7.44
2022-11-22T12:50:49.384Z,7.57
2022-11-22T12:55:59.230Z,7.63
2022-11-22T13:01:16.480Z,7.68
2022-11-22T13:06:24.967Z,7.75
2022-11-22T13:11:33.218Z,7.77
2022-11-22T13:16:38.589Z,7.78
2022-11-22T13:21:55.562Z,7.82
2022-11-22T13:27:15.941Z,7.77
2022-11-22T13:32:23.834Z,7.68
2022-11-22T13:37:27.817Z,7.64
2022-11-22T13:42:30.867Z,7.74
2022-11-22T13:47:45.640Z,7.75
2022-11-22T13:52:53.694Z,7.84
2022-11-22T13:57:56.857Z,7.89
2022-11-22T14:03:21.670Z,7.89
2022-11-22T14:08:34.376Z,7.84
2022-11-22T14:13:48.351Z,7.77
2022-11-22T14:18:59.985Z,7.72
2022-11-22T14:24:13.558Z,7.69
2022-11-22T14:29:53.669Z,7.64
2022-11-22T14:35:27.920Z,7.62
2022-11-22T14:40:38.530Z,7.60
2022-11-22T14:45:45.086Z,7.54
2022-11-22T14:51:00.586Z,7.52
2022-11-22T14:56:14.894Z,7.43
2022-11-22T15:01:42.180Z,7.40
2022-11-22T15:09:23.397Z,7.43
2022-11-22T15:12:49.315Z,7.42
2022-11-22T16:01:32.066Z,7.03
2022-11-22T16:06:35.214Z,7.00
2022-11-22T16:11:40.833Z,7.00
2022-11-22T16:16:43.955Z,6.99
2022-11-22T16:21:56.960Z,6.97
2022-11-22T16:27:03.586Z,6.99
2022-11-22T16:32:12.340Z,6.99
2022-11-22T16:37:26.556Z,7.00
2022-11-22T16:42:36.266Z,7.02
2022-11-22T16:47:39.232Z,7.01
2022-11-22T16:52:46.267Z,7.03
2022-11-22T16:57:50.676Z,7.03
2022-11-22T17:02:53.675Z,7.03
2022-11-22T17:07:56.726Z,6.92
2022-11-22T17:13:01.365Z,6.90
2022-11-22T17:18:04.428Z,6.94
2022-11-22T17:23:12.513Z,6.98
2022-11-22T17:28:16.929Z,6.99
2022-11-22T17:33:20.315Z,7.05
2022-11-22T17:38:23.464Z,7.08
2022-11-22T17:43:28.002Z,7.09
2022-11-22T17:48:31.111Z,7.15
2022-11-22T17:53:34.213Z,7.17
2022-11-22T17:58:38.947Z,7.18
2022-11-22T18:03:43.070Z,7.22
2022-11-22T18:08:47.470Z,7.23
2022-11-22T18:13:52.393Z,7.26
2022-11-22T18:18:57.739Z,7.36
2022-11-22T18:24:02.352Z,7.47
2022-11-22T18:34:30.952Z,7.57
2022-11-22T18:39:36.576Z,7.61
2022-11-22T18:44:41.986Z,7.60
2022-11-22T18:49:45.096Z,7.47
2022-11-22T18:54:48.334Z,7.46
2022-11-22T18:59:52.885Z,7.46
2022-11-22T19:04:56.099Z,7.47
2022-11-22T19:09:59.707Z,7.46
2022-11-22T19:15:05.140Z,7.45
2022-11-22T19:20:16.711Z,7.46
2022-11-22T19:25:26.780Z,7.48
2022-11-22T19:30:31.521Z,7.44
2022-11-22T19:35:36.632Z,7.43
2022-11-22T19:40:41.798Z,7.42
2022-11-22T19:45:46.423Z,7.42
2022-11-22T19:51:22.662Z,7.43
2022-11-22T19:56:30.690Z,7.41
2022-11-22T20:01:36.027Z,7.42
2022-11-22T20:06:39.108Z,7.42
2022-11-22T20:11:44.550Z,7.46
2022-11-22T20:16:49.007Z,7.49
2022-11-22T20:21:52.103Z,7.50
2022-11-22T20:26:55.159Z,7.51
2022-11-22T20:32:01.749Z,7.52
2022-11-22T20:37:05.142Z,7.52
2022-11-22T20:42:33.104Z,7.54
2022-11-22T20:47:34.218Z,7.56
2022-11-22T20:52:37.807Z,7.57
2022-11-22T20:57:41.509Z,7.61
2022-11-22T21:02:48.810Z,7.62
2022-11-22T21:07:53.511Z,7.62
2022-11-22T21:12:56.568Z,7.65
2022-11-22T21:18:24.098Z,7.65
2022-11-22T21:23:27.668Z,7.67
2022-11-22T21:28:30.682Z,7.68
2022-11-22T21:33:38.947Z,7.68
2022-11-22T21:38:42.030Z,7.68
2022-11-22T21:43:50.159Z,7.68
2022-11-22T21:48:56.342Z,7.68
2022-11-22T21:54:04.231Z,7.67
2022-11-22T21:59:07.328Z,7.66
2022-11-22T22:04:11.806Z,7.68
2022-11-22T22:09:14.920Z,7.68
2022-11-22T22:14:20.069Z,7.69
2022-11-22T22:19:24.450Z,7.72
2022-11-22T22:24:28.037Z,7.73
2022-11-22T22:29:31.081Z,7.73
2022-11-22T22:34:36.320Z,7.75
2022-11-22T22:39:39.447Z,7.78
2022-11-22T22:44:42.393Z,7.79
2022-11-22T22:49:46.808Z,7.72
2022-11-22T22:54:49.969Z,7.76
2022-11-22T22:59:53.086Z,7.77
2022-11-22T23:04:57.544Z,7.79
2022-11-22T23:10:02.643Z,7.83
2022-11-22T23:15:06.984Z,7.85
2022-11-22T23:20:11.897Z,7.85
2022-11-22T23:25:14.989Z,7.88
2022-11-22T23:30:18.308Z,7.87
2022-11-22T23:35:22.901Z,7.88
2022-11-22T23:40:26.150Z,7.82
2022-11-22T23:45:29.260Z,7.79
2022-11-22T23:50:37.141Z,7.77
2022-11-22T23:55:40.522Z,7.77
